createdAt,value
2022-12-13T00:00:44.689Z,49.13
2022-12-13T00:03:15.935Z,40.60
2022-12-13T00:05:47.183Z,42.60
2022-12-13T00:08:18.525Z,51.70
2022-12-13T00:11:02.686Z,43.03
2022-12-13T00:13:34.300Z,43.25
2022-12-13T00:16:08.389Z,44.00
2022-12-13T00:18:39.999Z,49.33
2022-12-13T00:21:14.790Z,55.47
2022-12-13T00:23:47.199Z,56.42
2022-12-13T00:26:24.635Z,52.28
2022-12-13T00:28:58.415Z,50.88
2022-12-13T00:34:23.474Z,45.45
2022-12-13T00:36:55.308Z,49.58
2022-12-13T00:39:26.794Z,44.80
2022-12-13T00:41:58.157Z,40.58
2022-12-13T00:44:29.472Z,48.88
2022-12-13T00:47:00.779Z,41.22
2022-12-13T00:49:32.049Z,44.30
2022-12-13T00:52:03.441Z,42.55
2022-12-13T00:54:34.864Z,47.80
2022-12-13T00:57:06.131Z,46.28
2022-12-13T00:59:37.387Z,57.90
2022-12-13T01:02:08.640Z,42.95
2022-12-13T01:04:40.040Z,44.15
2022-12-13T01:07:11.295Z,42.97
2022-12-13T01:09:42.627Z,44.33
2022-12-13T01:12:13.881Z,35.42
2022-12-13T01:14:45.136Z,41.72
2022-12-13T01:17:16.416Z,45.70
2022-12-13T01:19:47.715Z,41.67
2022-12-13T01:22:19.038Z,50.17
2022-12-13T01:24:50.326Z,43.35
2022-12-13T01:27:21.616Z,40.75
2022-12-13T01:29:52.864Z,42.95
2022-12-13T01:32:24.285Z,39.92
2022-12-13T01:34:55.596Z,41.42
2022-12-13T01:37:26.901Z,40.92
2022-12-13T01:39:58.611Z,43.50
2022-12-13T01:42:30.108Z,41.03
2022-12-13T01:45:12.106Z,41.58
2022-12-13T01:47:50.851Z,41.78
2022-12-13T01:50:26.644Z,38.45
2022-12-13T01:53:00.232Z,35.13
2022-12-13T01:55:41.320Z,35.08
2022-12-13T01:58:14.888Z,36.53
2022-12-13T02:00:47.625Z,38.22
2022-12-13T02:03:22.019Z,33.70
2022-12-13T02:06:12.873Z,35.55
2022-12-13T02:08:45.647Z,31.20
2022-12-13T02:11:17.028Z,42.95
2022-12-13T02:13:48.323Z,36.40
2022-12-13T02:16:45.540Z,34.10
2022-12-13T02:19:38.376Z,46.17
2022-12-13T02:22:56.989Z,33.53
2022-12-13T02:25:45.578Z,42.03
2022-12-13T02:28:38.959Z,32.83
2022-12-13T02:31:18.106Z,41.30
2022-12-13T02:33:56.667Z,41.53
2022-12-13T02:36:38.543Z,38.17
2022-12-13T02:39:30.332Z,42.13
2022-12-13T02:42:21.973Z,39.70
2022-12-13T02:45:17.174Z,37.80
2022-12-13T02:47:55.653Z,35.85
2022-12-13T02:50:27.596Z,29.73
2022-12-13T02:53:00.855Z,35.92
2022-12-13T02:56:13.528Z,35.10
2022-12-13T02:58:48.992Z,37.10
2022-12-13T03:01:40.370Z,34.25
2022-12-13T03:05:00.015Z,38.35
2022-12-13T03:07:49.622Z,37.88
2022-12-13T03:10:31.337Z,31.02
2022-12-13T03:13:27.287Z,35.65
2022-12-13T03:16:07.803Z,33.28
2022-12-13T03:18:40.637Z,35.42
2022-12-13T03:21:12.184Z,36.90
2022-12-13T03:23:43.449Z,31.38
2022-12-13T03:26:18.719Z,36.85
2022-12-13T03:28:51.215Z,38.70
2022-12-13T03:31:22.549Z,36.25
2022-12-13T03:33:53.932Z,31.75
2022-12-13T03:36:25.606Z,39.85
2022-12-13T03:38:57.133Z,39.15
2022-12-13T03:41:32.727Z,32.28
2022-12-13T03:44:05.912Z,34.10
2022-12-13T03:46:37.208Z,33.28
2022-12-13T03:49:11.373Z,34.97
2022-12-13T03:51:46.623Z,36.00
2022-12-13T03:54:17.946Z,37.63
2022-12-13T03:56:49.190Z,35.45
2022-12-13T03:59:20.684Z,36.05
2022-12-13T04:01:52.070Z,36.83
2022-12-13T04:04:23.394Z,34.58
2022-12-13T04:06:54.628Z,34.90
2022-12-13T04:09:25.911Z,36.10
2022-12-13T04:12:15.818Z,37.05
2022-12-13T04:14:47.074Z,33.17
2022-12-13T04:17:18.312Z,34.88
2022-12-13T04:19:49.585Z,38.65
2022-12-13T04:22:24.852Z,32.42
2022-12-13T04:24:56.335Z,33.63
2022-12-13T04:27:27.579Z,30.60
2022-12-13T04:29:58.963Z,34.08
2022-12-13T04:32:30.281Z,31.48
2022-12-13T04:35:01.831Z,32.75
2022-12-13T04:37:33.191Z,31.52
2022-12-13T04:40:05.143Z,34.85
2022-12-13T04:42:36.547Z,36.35
2022-12-13T04:45:09.194Z,40.70
2022-12-13T04:47:40.443Z,31.02
2022-12-13T04:50:13.512Z,35.40
2022-12-13T04:52:44.858Z,30.05
2022-12-13T04:55:16.515Z,42.50
2022-12-13T04:57:48.146Z,30.08
2022-12-13T05:00:21.946Z,43.95
2022-12-13T05:02:53.310Z,42.35
2022-12-13T05:05:24.819Z,35.47
2022-12-13T05:07:56.094Z,31.90
2022-12-13T05:10:34.245Z,39.72
2022-12-13T05:13:09.073Z,34.65
2022-12-13T05:15:40.391Z,37.97
2022-12-13T05:18:11.692Z,35.30
2022-12-13T05:20:42.999Z,36.42
2022-12-13T05:23:14.297Z,39.08
2022-12-13T05:25:54.102Z,36.75
2022-12-13T05:28:28.940Z,31.63
2022-12-13T05:31:23.150Z,41.92
2022-12-13T05:34:01.427Z,43.53
2022-12-13T05:36:33.028Z,36.03
2022-12-13T05:39:04.292Z,47.03
2022-12-13T05:41:36.936Z,42.28
2022-12-13T05:44:10.295Z,32.88
2022-12-13T05:46:41.847Z,36.65
2022-12-13T05:49:13.091Z,38.95
2022-12-13T05:51:44.430Z,38.10
2022-12-13T05:54:15.839Z,34.08
2022-12-13T05:56:47.180Z,37.42
2022-12-13T05:59:18.776Z,36.53
2022-12-13T06:01:50.115Z,30.33
2022-12-13T06:04:22.652Z,34.58
2022-12-13T06:06:54.923Z,39.83
2022-12-13T06:09:26.219Z,32.40
2022-12-13T06:12:00.995Z,39.92
2022-12-13T06:14:32.692Z,38.22
2022-12-13T06:17:04.584Z,39.55
2022-12-13T06:19:35.840Z,34.05
2022-12-13T06:22:07.194Z,33.78
2022-12-13T06:24:38.812Z,38.65
2022-12-13T06:27:10.335Z,32.85
2022-12-13T06:29:42.054Z,34.95
2022-12-13T06:32:13.734Z,33.47
2022-12-13T06:34:44.976Z,38.35
2022-12-13T06:37:16.279Z,33.28
2022-12-13T06:39:48.151Z,32.42
2022-12-13T06:42:22.239Z,35.03
2022-12-13T06:44:56.176Z,34.42
2022-12-13T06:47:32.152Z,29.95
2022-12-13T06:50:05.560Z,35.45
2022-12-13T06:52:38.036Z,30.40
2022-12-13T06:55:09.682Z,34.60
2022-12-13T06:57:41.435Z,34.72
2022-12-13T07:00:13.573Z,32.60
2022-12-13T07:02:44.947Z,32.60
2022-12-13T07:05:16.265Z,30.00
2022-12-13T07:07:47.694Z,38.40
2022-12-13T07:10:22.927Z,31.80
2022-12-13T07:12:54.360Z,31.58
2022-12-13T07:15:25.614Z,36.08
2022-12-13T07:17:56.877Z,30.23
2022-12-13T07:20:28.196Z,29.23
2022-12-13T07:22:59.526Z,30.50
2022-12-13T07:25:30.772Z,28.23
2022-12-13T07:28:05.277Z,25.05
2022-12-13T07:30:40.482Z,29.08
2022-12-13T07:33:13.939Z,28.13
2022-12-13T07:36:00.549Z,28.75
2022-12-13T07:38:31.805Z,31.45
2022-12-13T07:41:04.044Z,32.58
2022-12-13T07:43:35.960Z,29.63
2022-12-13T07:46:08.117Z,29.42
2022-12-13T07:48:39.404Z,38.58
2022-12-13T07:51:14.844Z,28.60
2022-12-13T07:53:46.107Z,29.10
2022-12-13T07:56:17.369Z,35.95
2022-12-13T07:58:48.713Z,32.10
2022-12-13T08:01:20.054Z,31.20
2022-12-13T08:03:51.380Z,38.58
2022-12-13T08:06:22.682Z,35.45
2022-12-13T08:08:57.628Z,38.13
2022-12-13T08:11:28.920Z,36.10
2022-12-13T08:14:00.532Z,43.20
2022-12-13T08:16:31.981Z,39.55
2022-12-13T08:19:04.723Z,35.22
2022-12-13T08:21:55.816Z,35.92
2022-12-13T08:24:30.003Z,41.55
2022-12-13T08:27:03.189Z,39.05
2022-12-13T08:29:36.172Z,37.65
2022-12-13T08:32:10.109Z,34.10
2022-12-13T08:34:42.157Z,32.53
2022-12-13T08:37:13.653Z,33.88
2022-12-13T08:39:44.990Z,34.65
2022-12-13T08:42:20.087Z,35.50
2022-12-13T08:44:53.272Z,36.92
2022-12-13T08:47:26.849Z,38.15
2022-12-13T08:50:02.961Z,38.97
2022-12-13T08:52:40.368Z,32.40
2022-12-13T08:55:14.670Z,30.52
2022-12-13T08:57:46.063Z,35.90
2022-12-13T09:00:19.778Z,30.27
2022-12-13T09:02:51.279Z,36.00
2022-12-13T09:05:34.249Z,37.78
2022-12-13T09:08:24.080Z,33.30
2022-12-13T09:10:59.417Z,26.10
2022-12-13T09:13:33.191Z,33.95
2022-12-13T09:16:14.330Z,34.28
2022-12-13T09:18:56.082Z,36.97
2022-12-13T09:21:31.769Z,32.08
2022-12-13T09:24:03.598Z,29.15
2022-12-13T09:26:38.314Z,34.45
2022-12-13T09:29:11.717Z,30.63
2022-12-13T09:31:47.103Z,27.60
2022-12-13T09:34:24.033Z,35.85
2022-12-13T09:36:55.305Z,32.80
2022-12-13T09:39:33.029Z,34.92
2022-12-13T09:42:10.587Z,28.83
2022-12-13T09:45:03.247Z,30.52
2022-12-13T09:47:47.473Z,30.90
2022-12-13T09:50:27.082Z,31.33
2022-12-13T09:53:01.161Z,36.72
2022-12-13T09:55:44.108Z,33.75
2022-12-13T09:58:21.514Z,34.72
2022-12-13T10:00:55.551Z,35.05
2022-12-13T10:03:26.915Z,33.47
2022-12-13T10:06:00.623Z,33.78
2022-12-13T10:08:57.521Z,27.97
2022-12-13T10:11:31.819Z,27.77
2022-12-13T10:14:16.174Z,28.00
2022-12-13T10:16:51.893Z,24.43
2022-12-13T10:19:30.206Z,28.52
2022-12-13T10:22:04.596Z,32.13
2022-12-13T10:24:52.812Z,31.25
2022-12-13T10:27:29.312Z,34.80
2022-12-13T10:30:06.458Z,32.37
2022-12-13T10:32:54.914Z,29.47
2022-12-13T10:35:29.197Z,32.43
2022-12-13T10:38:03.258Z,28.73
2022-12-13T10:40:48.814Z,35.43
2022-12-13T10:43:26.267Z,33.03
2022-12-13T10:45:59.798Z,27.70
2022-12-13T10:48:39.405Z,33.00
2022-12-13T10:51:17.839Z,34.37
2022-12-13T10:53:58.813Z,28.97
2022-12-13T10:56:37.107Z,32.20
2022-12-13T10:59:16.992Z,27.30
2022-12-13T11:01:48.771Z,27.57
2022-12-13T11:04:31.491Z,28.63
2022-12-13T11:07:22.915Z,33.87
2022-12-13T11:09:54.205Z,24.73
2022-12-13T11:12:27.196Z,34.07
2022-12-13T11:15:07.628Z,28.60
2022-12-13T11:17:49.679Z,33.50
2022-12-13T11:20:27.174Z,33.40
2022-12-13T11:23:04.606Z,34.37
2022-12-13T11:25:40.744Z,32.63
2022-12-13T11:28:37.602Z,29.63
2022-12-13T11:31:19.079Z,32.20
2022-12-13T11:34:11.428Z,30.17
2022-12-13T11:37:06.071Z,27.03
2022-12-13T11:39:43.178Z,32.83
2022-12-13T11:42:38.355Z,32.40
2022-12-13T11:45:25.482Z,27.27
2022-12-13T11:48:09.449Z,29.80
2022-12-13T11:50:46.002Z,31.57
2022-12-13T11:53:46.299Z,32.23
2022-12-13T11:56:31.561Z,34.83
2022-12-13T11:59:19.113Z,30.70
2022-12-13T12:02:04.877Z,31.37
2022-12-13T12:05:05.758Z,34.13
2022-12-13T12:08:05.650Z,29.20
2022-12-13T12:10:50.080Z,32.57
2022-12-13T12:13:29.040Z,33.37
2022-12-13T12:16:13.334Z,34.73
2022-12-13T12:18:44.793Z,36.47
2022-12-13T12:22:05.074Z,36.73
2022-12-13T12:24:48.076Z,38.20
2022-12-13T12:27:50.158Z,37.27
2022-12-13T12:30:59.237Z,43.03
2022-12-13T12:33:58.440Z,43.90
2022-12-13T12:36:51.827Z,37.27
2022-12-13T12:39:29.888Z,38.93
2022-12-13T12:42:26.478Z,40.10
2022-12-13T12:45:55.911Z,38.65
2022-12-13T12:49:00.737Z,34.00
2022-12-13T12:51:36.742Z,44.60
2022-12-13T12:54:33.181Z,41.13
2022-12-13T12:57:21.130Z,39.73
2022-12-13T13:00:03.217Z,40.67
2022-12-13T13:02:42.840Z,37.57
2022-12-13T13:05:32.156Z,37.10
2022-12-13T13:08:15.729Z,37.93
2022-12-13T13:10:49.770Z,39.43
2022-12-13T13:13:35.475Z,45.07
2022-12-13T13:16:27.014Z,39.30
2022-12-13T13:19:00.579Z,41.80
2022-12-13T13:21:33.669Z,44.13
2022-12-13T13:24:07.072Z,37.37
2022-12-13T13:26:44.539Z,38.50
2022-12-13T13:29:27.343Z,37.53
2022-12-13T13:32:11.755Z,42.87
2022-12-13T13:34:45.621Z,42.90
2022-12-13T13:37:25.688Z,40.17
2022-12-13T13:40:00.523Z,42.87
2022-12-13T13:42:32.867Z,38.60
2022-12-13T13:45:24.713Z,42.80
2022-12-13T13:48:14.651Z,40.33
2022-12-13T13:51:12.557Z,46.73
2022-12-13T13:54:25.643Z,41.83
2022-12-13T13:57:33.178Z,41.10
2022-12-13T14:00:41.019Z,44.13
2022-12-13T14:03:58.345Z,45.73
2022-12-13T14:07:01.054Z,40.87
2022-12-13T14:10:07.805Z,41.37
2022-12-13T14:13:21.283Z,42.40
2022-12-13T14:16:37.250Z,61.37
2022-12-13T14:19:20.682Z,87.97
2022-12-13T14:22:08.795Z,97.63
2022-12-13T14:25:23.276Z,104.33
2022-12-13T14:28:01.030Z,64.60
2022-12-13T14:30:33.405Z,56.40
2022-12-13T14:33:04.812Z,54.03
2022-12-13T14:35:36.076Z,51.80
2022-12-13T14:38:22.652Z,44.77
2022-12-13T14:40:58.546Z,48.38
2022-12-13T14:43:34.816Z,67.57
2022-12-13T14:46:07.661Z,74.82
2022-12-13T14:48:49.259Z,83.60
2022-12-13T14:51:30.948Z,53.60
2022-12-13T14:54:04.711Z,42.83
2022-12-13T14:56:53.401Z,49.40
2022-12-13T14:59:25.512Z,44.00
2022-12-13T15:02:00.275Z,49.03
2022-12-13T15:04:34.235Z,44.97
2022-12-13T15:07:25.138Z,57.53
2022-12-13T15:10:00.629Z,46.83
2022-12-13T15:12:32.064Z,48.38
2022-12-13T15:15:08.405Z,56.83
2022-12-13T15:17:40.237Z,79.53
2022-12-13T15:20:31.424Z,72.83
2022-12-13T15:23:18.808Z,69.33
2022-12-13T15:25:57.361Z,53.40
2022-12-13T15:28:33.909Z,46.90
2022-12-13T15:31:06.283Z,53.67
2022-12-13T15:33:48.207Z,61.80
2022-12-13T15:36:27.166Z,48.47
2022-12-13T15:39:01.576Z,52.40
2022-12-13T15:41:42.963Z,43.17
2022-12-13T15:44:26.157Z,47.23
2022-12-13T15:47:28.730Z,64.77
2022-12-13T15:50:05.171Z,46.80
2022-12-13T15:52:38.980Z,61.05
2022-12-13T15:55:10.682Z,50.63
2022-12-13T15:57:54.205Z,50.87
2022-12-13T16:00:31.806Z,47.30
2022-12-13T16:03:11.141Z,51.07
2022-12-13T16:05:49.952Z,45.35
2022-12-13T16:08:37.406Z,47.23
2022-12-13T16:11:09.151Z,49.03
2022-12-13T16:13:47.548Z,60.67
2022-12-13T16:16:29.787Z,59.93
2022-12-13T16:19:01.116Z,47.08
2022-12-13T16:21:32.426Z,51.83
2022-12-13T16:24:03.849Z,53.97
2022-12-13T16:26:35.161Z,52.75
2022-12-13T16:29:11.604Z,49.22
2022-12-13T16:34:18.196Z,69.25
2022-12-13T16:36:49.552Z,69.20
2022-12-13T16:39:21.091Z,59.35
2022-12-13T16:41:53.948Z,56.92
2022-12-13T16:44:35.902Z,59.58
2022-12-13T16:47:18.292Z,52.15
2022-12-13T16:49:51.758Z,45.58
2022-12-13T16:52:23.042Z,55.17
2022-12-13T16:54:54.289Z,50.85
2022-12-13T16:57:25.552Z,53.53
2022-12-13T16:59:56.798Z,56.55
2022-12-13T17:02:28.116Z,46.65
2022-12-13T17:04:59.408Z,54.70
2022-12-13T17:07:30.872Z,51.55
2022-12-13T17:10:02.835Z,48.80
2022-12-13T17:12:34.099Z,57.80
2022-12-13T17:15:06.330Z,57.08
2022-12-13T17:17:38.949Z,52.72
2022-12-13T17:20:13.168Z,47.60
2022-12-13T17:22:45.103Z,45.55
2022-12-13T17:25:16.804Z,55.25
2022-12-13T17:27:48.200Z,48.20
2022-12-13T17:30:19.548Z,56.95
2022-12-13T17:32:50.876Z,49.38
2022-12-13T17:35:22.214Z,52.17
2022-12-13T17:37:54.662Z,47.90
2022-12-13T17:40:26.003Z,53.50
2022-12-13T17:42:57.308Z,63.75
2022-12-13T17:45:28.568Z,62.92
2022-12-13T17:47:59.937Z,62.35
2022-12-13T17:50:31.209Z,65.15
2022-12-13T17:53:02.472Z,63.90
2022-12-13T17:55:33.734Z,57.47
2022-12-13T17:58:05.701Z,49.25
2022-12-13T18:00:37.667Z,59.22
2022-12-13T18:03:08.972Z,60.20
2022-12-13T18:05:40.388Z,64.15
2022-12-13T18:08:11.953Z,60.05
2022-12-13T18:10:43.214Z,63.17
2022-12-13T18:13:14.776Z,61.00
2022-12-13T18:15:46.052Z,61.88
2022-12-13T18:18:17.790Z,54.35
2022-12-13T18:20:49.591Z,50.15
2022-12-13T18:23:21.404Z,49.70
2022-12-13T18:25:59.644Z,48.08
2022-12-13T18:28:30.993Z,46.78
2022-12-13T18:31:04.754Z,41.08
2022-12-13T18:33:36.344Z,43.17
2022-12-13T18:36:08.854Z,40.88
2022-12-13T18:38:42.378Z,47.22
2022-12-13T18:41:20.094Z,46.47
2022-12-13T18:43:59.556Z,43.78
2022-12-13T18:46:34.469Z,44.05
2022-12-13T18:49:06.532Z,41.08
2022-12-13T18:51:37.925Z,45.58
2022-12-13T18:54:09.511Z,56.22
2022-12-13T18:56:40.964Z,41.35
2022-12-13T18:59:12.395Z,50.70
2022-12-13T19:01:44.215Z,46.17
2022-12-13T19:04:15.536Z,47.55
2022-12-13T19:06:46.779Z,44.00
2022-12-13T19:09:18.180Z,35.45
2022-12-13T19:11:49.754Z,37.33
2022-12-13T19:14:25.423Z,44.03
2022-12-13T19:16:58.372Z,44.60
2022-12-13T19:19:29.721Z,52.80
2022-12-13T19:22:00.966Z,43.55
2022-12-13T19:24:32.245Z,37.72
2022-12-13T19:27:03.594Z,39.28
2022-12-13T19:29:34.968Z,45.55
2022-12-13T19:32:06.955Z,37.58
2022-12-13T19:34:38.500Z,47.75
2022-12-13T19:37:10.468Z,50.33
2022-12-13T19:39:41.799Z,42.28
2022-12-13T19:42:13.107Z,47.25
2022-12-13T19:44:44.363Z,40.90
2022-12-13T19:47:16.312Z,34.60
2022-12-13T19:49:47.724Z,40.88
2022-12-13T19:52:19.766Z,47.40
2022-12-13T19:54:51.026Z,37.35
2022-12-13T19:57:22.344Z,39.30
2022-12-13T19:59:53.716Z,43.80
2022-12-13T20:02:25.804Z,42.05
2022-12-13T20:04:57.051Z,40.65
2022-12-13T20:07:28.627Z,46.38
2022-12-13T20:09:59.993Z,40.53
2022-12-13T20:12:37.010Z,40.70
2022-12-13T20:15:11.892Z,50.17
2022-12-13T20:17:43.146Z,45.65
2022-12-13T20:20:14.531Z,41.80
2022-12-13T20:22:46.560Z,41.55
2022-12-13T20:25:19.812Z,38.00
2022-12-13T20:27:51.090Z,46.80
2022-12-13T20:30:22.494Z,35.25
2022-12-13T20:32:54.198Z,47.13
2022-12-13T20:35:25.607Z,47.97
2022-12-13T20:37:56.940Z,88.45
2022-12-13T20:40:28.188Z,100.78
2022-12-13T20:42:59.462Z,100.40
2022-12-13T20:45:32.036Z,107.32
2022-12-13T20:48:03.387Z,90.63
2022-12-13T20:50:34.887Z,83.53
2022-12-13T20:53:06.233Z,73.47
2022-12-13T20:55:38.105Z,56.25
2022-12-13T20:58:10.307Z,50.97
2022-12-13T21:00:41.637Z,51.88
2022-12-13T21:03:12.921Z,53.00
2022-12-13T21:05:46.438Z,45.00
2022-12-13T21:08:37.221Z,41.92
2022-12-13T21:11:26.916Z,39.85
2022-12-13T21:14:18.544Z,43.85
2022-12-13T21:17:00.039Z,46.15
2022-12-13T21:19:39.794Z,36.80
2022-12-13T21:22:12.690Z,42.90
2022-12-13T21:24:43.957Z,32.13
2022-12-13T21:27:15.212Z,33.22
2022-12-13T21:29:46.496Z,38.90
2022-12-13T21:32:17.809Z,34.08
2022-12-13T21:34:49.064Z,34.13
2022-12-13T21:37:20.320Z,39.30
2022-12-13T21:39:51.651Z,34.72
2022-12-13T21:42:22.893Z,35.30
2022-12-13T21:44:58.896Z,37.08
2022-12-13T21:47:33.188Z,30.90
2022-12-13T21:50:04.806Z,39.67
2022-12-13T21:52:36.122Z,37.50
2022-12-13T21:55:37.914Z,36.53
2022-12-13T21:58:17.940Z,37.55
2022-12-13T22:00:49.279Z,35.97
2022-12-13T22:03:20.554Z,29.33
2022-12-13T22:05:51.890Z,33.22
2022-12-13T22:08:23.154Z,34.05
2022-12-13T22:11:17.754Z,33.45
2022-12-13T22:13:52.255Z,36.45
2022-12-13T22:16:23.571Z,29.70
2022-12-13T22:18:55.479Z,34.53
2022-12-13T22:21:26.957Z,39.83
2022-12-13T22:23:58.302Z,30.63
2022-12-13T22:26:29.567Z,33.63
2022-12-13T22:29:00.837Z,33.80
2022-12-13T22:31:33.511Z,33.97
2022-12-13T22:34:04.828Z,34.60
2022-12-13T22:36:36.172Z,31.75
2022-12-13T22:39:07.704Z,31.75
2022-12-13T22:41:38.967Z,29.85
2022-12-13T22:44:14.027Z,32.92
2022-12-13T22:46:45.352Z,31.60
2022-12-13T22:49:16.761Z,31.40
2022-12-13T22:51:48.245Z,29.67
2022-12-13T22:54:19.525Z,32.38
2022-12-13T22:56:51.670Z,31.48
2022-12-13T22:59:22.917Z,29.15
2022-12-13T23:02:02.111Z,30.13
2022-12-13T23:04:34.108Z,26.63
2022-12-13T23:07:05.877Z,27.00
2022-12-13T23:09:37.209Z,29.38
2022-12-13T23:12:29.008Z,29.92
2022-12-13T23:15:00.239Z,30.33
2022-12-13T23:17:31.601Z,27.73
2022-12-13T23:20:04.349Z,32.83
2022-12-13T23:22:35.676Z,27.20
2022-12-13T23:25:07.352Z,26.02
2022-12-13T23:27:38.616Z,25.00
2022-12-13T23:30:10.668Z,22.30
2022-12-13T23:32:42.219Z,25.83
2022-12-13T23:35:13.490Z,23.05
2022-12-13T23:37:44.774Z,26.95
2022-12-13T23:40:19.813Z,25.95
2022-12-13T23:42:51.097Z,22.40
2022-12-13T23:45:23.506Z,27.38
2022-12-13T23:47:54.784Z,24.25
2022-12-13T23:50:26.171Z,27.40
2022-12-13T23:52:57.451Z,20.83
2022-12-13T23:55:28.693Z,23.75
2022-12-13T23:57:59.945Z,20.67
